Port Salerno, Florida
Current Conditions -  °F | °C
As of 6:47 PM on Monday 20 Oct 2014 (Local Time) from KSUA Reporting Station
Scattered Clouds Scattered Clouds  
Wind Chill: 77°   Ceiling: Unl
Heat Index: 79°   Visibility: 7mi
Dew Point: 63°   Wind: 7mph
Humidity: 61%   Direction: 120°ESE
Pressure: 29.96"   Gusts: NA
Location:  27.15°N, 80.2°W
Report Text: KSUA 202247Z 12006KT 7SM SCT030 25/17 A2996
Loading
Personal Weather Stations






























Interactive Weather Map
Tropical Storm Tracking
New forecast layout! Learn more

10-Day Weather Forecast

Advertisements
Track Severe Weather on mobile